createdAt,value
2019-03-29T00:02:14.964Z,4.20
2019-03-29T00:04:43.392Z,4.20
2019-03-29T00:07:11.826Z,4.20
2019-03-29T00:09:40.265Z,4.10
2019-03-29T00:12:08.761Z,3.90
2019-03-29T00:14:37.223Z,3.80
2019-03-29T00:17:05.646Z,3.70
2019-03-29T00:19:34.104Z,3.70
2019-03-29T00:22:31.042Z,3.60
2019-03-29T00:24:41.105Z,3.60
2019-03-29T00:27:09.600Z,3.60
2019-03-29T00:29:38.032Z,3.60
2019-03-29T00:32:06.531Z,3.50
2019-03-29T00:34:34.918Z,3.50
2019-03-29T00:37:03.365Z,3.40
2019-03-29T00:39:31.773Z,3.40
2019-03-29T00:42:00.242Z,3.40
2019-03-29T00:44:28.673Z,3.40
2019-03-29T00:46:57.193Z,3.40
2019-03-29T00:49:25.616Z,3.40
2019-03-29T00:51:54.069Z,3.30
2019-03-29T00:54:22.484Z,3.30
2019-03-29T00:56:50.945Z,3.30
2019-03-29T00:59:19.396Z,3.30
2019-03-29T01:01:47.856Z,3.40
2019-03-29T01:04:16.342Z,3.50
2019-03-29T01:06:44.798Z,3.50
2019-03-29T01:09:13.300Z,3.50
2019-03-29T01:11:41.733Z,3.40
2019-03-29T01:14:10.250Z,3.30
2019-03-29T01:16:38.672Z,3.10
2019-03-29T01:19:07.118Z,3.00
2019-03-29T01:21:37.084Z,3.00
2019-03-29T01:24:05.618Z,3.00
2019-03-29T01:26:35.524Z,3.00
2019-03-29T01:29:05.768Z,3.00
2019-03-29T01:31:34.293Z,3.00
2019-03-29T01:34:02.795Z,3.00
2019-03-29T01:36:31.236Z,3.00
2019-03-29T01:38:59.683Z,2.90
2019-03-29T01:41:28.095Z,2.80
2019-03-29T01:46:38.696Z,2.80
2019-03-29T01:49:07.151Z,2.80
2019-03-29T01:51:35.623Z,2.90
2019-03-29T01:54:04.224Z,2.80
2019-03-29T01:56:32.855Z,2.80
2019-03-29T01:59:01.289Z,2.70
2019-03-29T02:01:29.741Z,2.60
2019-03-29T02:03:58.294Z,2.60
2019-03-29T02:06:27.357Z,2.60
2019-03-29T02:08:55.804Z,2.70
2019-03-29T02:11:24.298Z,2.80
2019-03-29T02:13:52.778Z,2.90
2019-03-29T02:16:21.346Z,2.90
2019-03-29T02:18:49.843Z,3.00
2019-03-29T02:21:18.438Z,3.00
2019-03-29T02:23:46.869Z,3.10
2019-03-29T02:26:15.354Z,3.00
2019-03-29T02:28:44.844Z,3.00
2019-03-29T02:31:13.425Z,2.90
2019-03-29T02:33:41.926Z,2.70
2019-03-29T02:36:10.487Z,2.60
2019-03-29T02:38:54.217Z,2.40
2019-03-29T02:41:09.086Z,2.40
2019-03-29T02:43:38.447Z,2.40
2019-03-29T02:46:07.233Z,2.50
2019-03-29T02:48:35.704Z,2.60
2019-03-29T02:51:04.893Z,2.60
2019-03-29T02:53:33.657Z,2.60
2019-03-29T02:56:02.085Z,2.70
2019-03-29T02:58:30.528Z,2.70
2019-03-29T03:01:00.631Z,2.70
2019-03-29T03:03:29.110Z,2.70
2019-03-29T03:05:57.606Z,2.70
2019-03-29T03:08:26.018Z,2.80
2019-03-29T03:10:54.477Z,2.80
2019-03-29T03:13:22.916Z,2.80
2019-03-29T03:15:51.411Z,2.90
2019-03-29T03:18:19.856Z,2.90
2019-03-29T03:20:48.290Z,2.90
2019-03-29T03:23:16.719Z,2.90
2019-03-29T03:25:45.224Z,3.00
2019-03-29T03:28:13.661Z,3.00
2019-03-29T03:30:42.105Z,3.10
2019-03-29T03:33:10.545Z,3.30
2019-03-29T03:35:39.052Z,3.30
2019-03-29T03:38:07.493Z,3.20
2019-03-29T03:40:35.901Z,3.10
2019-03-29T03:43:05.638Z,3.10
2019-03-29T03:45:35.644Z,3.00
2019-03-29T03:48:04.077Z,2.90
2019-03-29T03:50:40.129Z,2.70
2019-03-29T03:53:09.560Z,2.70
2019-03-29T03:55:40.051Z,2.60
2019-03-29T03:58:09.934Z,2.50
2019-03-29T04:00:55.604Z,2.50
2019-03-29T04:03:24.632Z,2.50
2019-03-29T04:05:53.319Z,2.50
2019-03-29T04:11:02.609Z,2.40
2019-03-29T04:13:31.119Z,2.30
2019-03-29T04:15:59.544Z,2.30
2019-03-29T04:18:28.146Z,2.20
2019-03-29T04:20:56.617Z,2.20
2019-03-29T04:23:25.045Z,2.20
2019-03-29T04:25:53.542Z,2.10
2019-03-29T04:28:21.977Z,2.10
2019-03-29T04:30:50.398Z,2.10
2019-03-29T04:33:20.534Z,2.10
2019-03-29T04:35:48.949Z,2.20
2019-03-29T04:38:17.390Z,2.30
2019-03-29T04:40:45.801Z,2.20
2019-03-29T04:43:14.305Z,2.20
2019-03-29T04:45:42.832Z,2.20
2019-03-29T04:48:11.292Z,2.10
2019-03-29T04:50:39.713Z,2.10
2019-03-29T04:53:08.172Z,2.20
2019-03-29T04:55:36.581Z,2.20
2019-03-29T04:58:05.426Z,2.10
2019-03-29T05:00:33.872Z,1.90
2019-03-29T05:03:09.439Z,1.90
2019-03-29T05:05:37.942Z,1.80
2019-03-29T05:08:06.541Z,1.80
2019-03-29T05:10:34.973Z,1.90
2019-03-29T05:13:03.459Z,1.90
2019-03-29T05:15:31.901Z,1.90
2019-03-29T05:18:00.344Z,1.80
2019-03-29T05:20:28.787Z,1.70
2019-03-29T05:22:57.196Z,1.70
2019-03-29T05:25:27.546Z,1.80
2019-03-29T05:27:55.966Z,1.80
2019-03-29T05:30:24.397Z,1.90
2019-03-29T05:32:52.823Z,1.90
2019-03-29T05:35:21.295Z,1.90
2019-03-29T05:37:49.735Z,1.90
2019-03-29T05:40:18.162Z,1.80
2019-03-29T05:42:46.668Z,1.90
2019-03-29T05:45:15.223Z,2.00
2019-03-29T05:47:43.696Z,2.10
2019-03-29T05:50:12.447Z,2.20
2019-03-29T05:52:40.905Z,2.30
2019-03-29T06:00:27.132Z,2.50
2019-03-29T06:03:01.599Z,2.70
2019-03-29T06:05:30.012Z,3.10
2019-03-29T06:07:58.469Z,3.40
2019-03-29T06:10:26.881Z,3.70
2019-03-29T06:12:55.338Z,4.00
2019-03-29T06:15:23.748Z,4.40
2019-03-29T06:17:52.199Z,4.80
2019-03-29T06:20:20.700Z,5.20
2019-03-29T06:22:49.225Z,5.60
2019-03-29T06:25:19.596Z,6.10
2019-03-29T06:27:48.025Z,6.50
2019-03-29T06:30:19.528Z,6.80
2019-03-29T06:32:47.977Z,7.10
2019-03-29T06:35:16.385Z,7.30
2019-03-29T06:37:45.265Z,7.40
2019-03-29T06:40:22.884Z,7.50
2019-03-29T06:42:51.337Z,7.60
2019-03-29T06:45:19.781Z,7.80
2019-03-29T06:47:48.203Z,7.90
2019-03-29T06:50:19.356Z,8.00
2019-03-29T06:52:47.760Z,8.00
2019-03-29T06:55:16.271Z,8.10
2019-03-29T06:57:44.772Z,8.20
2019-03-29T07:00:13.402Z,8.30
2019-03-29T07:02:41.889Z,8.40
2019-03-29T07:05:11.725Z,8.50
2019-03-29T07:07:40.170Z,8.50
2019-03-29T07:10:08.959Z,8.60
2019-03-29T07:12:37.371Z,8.70
2019-03-29T07:15:07.672Z,8.80
2019-03-29T07:17:36.085Z,8.90
2019-03-29T07:22:47.302Z,9.00
2019-03-29T07:25:15.806Z,9.10
2019-03-29T07:27:50.590Z,9.10
2019-03-29T07:30:15.096Z,9.20
2019-03-29T07:32:43.552Z,9.30
2019-03-29T07:35:12.098Z,9.40
2019-03-29T07:37:40.516Z,9.50
2019-03-29T07:40:09.299Z,9.60
2019-03-29T07:42:37.715Z,9.60
2019-03-29T07:45:09.984Z,9.70
2019-03-29T07:47:37.580Z,9.70
2019-03-29T07:50:07.077Z,9.70
2019-03-29T07:52:35.576Z,9.80
2019-03-29T07:55:05.885Z,9.90
2019-03-29T07:57:34.410Z,10.00
2019-03-29T08:00:03.296Z,10.00
2019-03-29T08:02:34.939Z,10.20
2019-03-29T08:05:01.949Z,10.30
2019-03-29T08:10:24.134Z,10.40
2019-03-29T08:12:42.819Z,10.50
2019-03-29T08:20:40.545Z,10.80
2019-03-29T08:22:59.669Z,10.80
2019-03-29T08:25:28.117Z,10.90
2019-03-29T08:27:56.591Z,11.00
2019-03-29T08:30:25.183Z,11.10
2019-03-29T08:32:53.631Z,11.20
2019-03-29T08:35:22.135Z,11.20
2019-03-29T08:37:51.135Z,11.20
2019-03-29T08:40:19.639Z,11.30
2019-03-29T08:42:48.100Z,11.30
2019-03-29T08:45:16.653Z,11.30
2019-03-29T08:47:45.108Z,11.40
2019-03-29T08:50:13.625Z,11.60
2019-03-29T08:52:42.079Z,11.70
2019-03-29T09:00:37.212Z,12.00
2019-03-29T09:03:05.725Z,12.10
2019-03-29T09:05:34.240Z,12.20
2019-03-29T09:08:05.071Z,12.20
2019-03-29T09:10:33.601Z,12.30
2019-03-29T09:13:04.340Z,12.40
2019-03-29T09:15:32.304Z,12.50
2019-03-29T09:18:00.974Z,12.60
2019-03-29T09:20:29.416Z,12.70
2019-03-29T09:22:58.435Z,12.70
2019-03-29T09:25:34.659Z,12.90
2019-03-29T09:28:03.208Z,13.00
2019-03-29T09:30:31.815Z,13.10
2019-03-29T09:33:02.905Z,13.20
2019-03-29T09:35:33.714Z,13.30
2019-03-29T09:38:03.809Z,13.20
2019-03-29T09:40:32.264Z,13.30
2019-03-29T09:45:36.693Z,13.50
2019-03-29T09:48:05.127Z,13.50
2019-03-29T09:50:33.715Z,13.50
2019-03-29T09:55:38.220Z,13.80
2019-03-29T09:58:06.650Z,13.80
2019-03-29T10:03:30.876Z,13.90
2019-03-29T10:05:59.323Z,14.00
2019-03-29T10:08:27.825Z,14.10
2019-03-29T10:10:56.265Z,14.20
2019-03-29T10:13:24.819Z,14.30
2019-03-29T10:15:53.413Z,14.30
2019-03-29T10:18:21.914Z,14.40
2019-03-29T10:20:50.370Z,14.40
2019-03-29T10:23:18.978Z,14.40
2019-03-29T10:25:47.476Z,14.30
2019-03-29T10:28:15.895Z,14.50
2019-03-29T10:30:46.875Z,14.60
2019-03-29T10:33:15.041Z,14.70
2019-03-29T10:35:52.108Z,14.80
2019-03-29T10:38:13.804Z,14.80
2019-03-29T10:43:18.231Z,14.90
2019-03-29T10:45:46.824Z,14.90
2019-03-29T10:48:15.263Z,14.90
2019-03-29T10:50:43.695Z,15.00
2019-03-29T10:53:12.259Z,15.00
2019-03-29T10:55:40.709Z,15.20
2019-03-29T10:58:09.900Z,15.30
2019-03-29T11:00:39.767Z,15.20
2019-03-29T11:03:08.711Z,15.10
2019-03-29T11:05:37.212Z,15.00
2019-03-29T11:08:05.829Z,15.00
2019-03-29T11:10:39.136Z,15.00
2019-03-29T11:13:13.215Z,15.00
2019-03-29T11:15:37.909Z,15.10
2019-03-29T11:18:06.693Z,15.20
2019-03-29T11:23:11.053Z,15.60
2019-03-29T11:25:39.537Z,15.60
2019-03-29T11:28:08.113Z,15.70
2019-03-29T11:30:42.367Z,15.90
2019-03-29T11:33:07.075Z,15.90
2019-03-29T11:35:35.725Z,15.80
2019-03-29T11:38:04.183Z,15.80
2019-03-29T11:40:32.671Z,15.80
2019-03-29T11:43:01.138Z,15.80
2019-03-29T11:45:30.206Z,15.70
2019-03-29T11:48:08.196Z,15.80
2019-03-29T11:50:29.243Z,15.80
2019-03-29T11:52:57.977Z,15.80
2019-03-29T11:55:26.503Z,15.90
2019-03-29T11:57:55.940Z,16.10
2019-03-29T12:00:34.789Z,16.10
2019-03-29T12:03:03.342Z,16.10
2019-03-29T12:05:31.764Z,16.10
2019-03-29T12:08:00.288Z,16.20
2019-03-29T12:10:28.803Z,16.30
2019-03-29T12:12:57.340Z,16.30
2019-03-29T12:15:25.850Z,16.40
2019-03-29T12:17:54.249Z,16.50
2019-03-29T12:20:22.697Z,16.60
2019-03-29T12:22:51.108Z,16.60
2019-03-29T12:25:19.690Z,16.70
2019-03-29T12:27:48.441Z,16.70
2019-03-29T12:30:30.696Z,16.60
2019-03-29T12:32:47.260Z,16.60
2019-03-29T12:35:15.799Z,16.70
2019-03-29T12:37:44.221Z,16.70
2019-03-29T12:40:13.123Z,16.80
2019-03-29T12:42:42.762Z,16.80
2019-03-29T12:45:11.619Z,16.90
2019-03-29T12:47:40.070Z,17.00
2019-03-29T12:50:09.911Z,16.90
2019-03-29T12:52:38.339Z,17.10
2019-03-29T12:55:09.741Z,17.20
2019-03-29T12:57:39.194Z,17.20
2019-03-29T13:00:10.193Z,17.40
2019-03-29T13:02:38.722Z,17.40
2019-03-29T13:05:10.566Z,17.40
2019-03-29T13:07:40.733Z,17.50
2019-03-29T13:10:09.746Z,17.50
2019-03-29T13:15:26.125Z,17.50
2019-03-29T13:17:54.729Z,17.40
2019-03-29T13:20:24.397Z,17.50
2019-03-29T13:22:52.829Z,17.50
2019-03-29T13:25:30.220Z,17.50
2019-03-29T13:27:59.577Z,17.60
2019-03-29T13:30:28.354Z,17.60
2019-03-29T13:32:56.769Z,17.70
2019-03-29T13:35:25.214Z,17.80
2019-03-29T13:37:53.797Z,17.90
2019-03-29T13:40:30.810Z,17.90
2019-03-29T13:43:01.558Z,17.90
2019-03-29T13:45:30.133Z,17.90
2019-03-29T13:47:58.585Z,17.80
2019-03-29T13:50:27.170Z,17.80
2019-03-29T13:52:55.733Z,17.90
2019-03-29T13:55:24.191Z,17.90
2019-03-29T13:57:52.612Z,17.90
2019-03-29T14:00:21.062Z,17.90
2019-03-29T14:02:49.506Z,18.00
2019-03-29T14:05:17.996Z,18.10
2019-03-29T14:07:46.579Z,18.20
2019-03-29T14:10:15.253Z,18.30
2019-03-29T14:12:43.685Z,18.30
2019-03-29T14:15:14.160Z,18.40
2019-03-29T14:17:42.612Z,18.40
2019-03-29T14:20:11.678Z,18.50
2019-03-29T14:22:40.129Z,18.50
2019-03-29T14:25:11.882Z,18.60
2019-03-29T14:27:40.477Z,18.60
2019-03-29T14:30:09.351Z,18.80
2019-03-29T14:32:40.662Z,18.80
2019-03-29T14:35:09.525Z,19.00
2019-03-29T14:37:37.975Z,19.10
2019-03-29T14:43:01.884Z,19.20
2019-03-29T14:45:30.566Z,19.50
2019-03-29T14:47:59.011Z,19.90
2019-03-29T14:50:27.427Z,21.00
2019-03-29T14:52:55.884Z,21.80
2019-03-29T14:55:24.298Z,22.00
2019-03-29T14:57:52.798Z,22.40
2019-03-29T15:00:38.086Z,23.40
2019-03-29T15:03:06.664Z,24.00
2019-03-29T15:05:41.194Z,23.50
2019-03-29T15:08:11.941Z,23.60
2019-03-29T15:10:40.377Z,24.00
2019-03-29T15:13:08.786Z,24.40
2019-03-29T15:15:37.314Z,24.60
2019-03-29T15:18:05.883Z,24.70
2019-03-29T15:20:36.350Z,24.40
2019-03-29T15:23:04.918Z,24.30
2019-03-29T15:25:33.457Z,23.90
2019-03-29T15:28:01.973Z,24.20
2019-03-29T15:30:30.460Z,24.20
2019-03-29T15:32:58.895Z,24.40
2019-03-29T15:35:27.332Z,23.90
2019-03-29T15:37:58.768Z,23.30
2019-03-29T15:40:27.199Z,22.30
2019-03-29T15:42:55.614Z,21.50
2019-03-29T15:45:24.068Z,20.90
2019-03-29T15:47:52.609Z,20.40
2019-03-29T15:50:21.148Z,19.80
2019-03-29T15:52:50.961Z,19.60
2019-03-29T15:55:19.489Z,19.40
2019-03-29T15:57:47.938Z,19.20
2019-03-29T16:00:17.165Z,19.10
2019-03-29T16:02:45.746Z,19.30
2019-03-29T16:05:14.193Z,19.40
2019-03-29T16:07:42.728Z,19.40
2019-03-29T16:10:11.238Z,19.40
2019-03-29T16:12:39.720Z,19.30
2019-03-29T16:15:08.473Z,19.10
2019-03-29T16:17:36.945Z,18.90
2019-03-29T16:20:06.625Z,18.80
2019-03-29T16:22:35.443Z,18.70
2019-03-29T16:25:06.601Z,18.70
2019-03-29T16:27:35.236Z,18.70
2019-03-29T16:30:05.093Z,18.60
2019-03-29T16:32:33.546Z,18.60
2019-03-29T16:35:02.009Z,18.60
2019-03-29T16:37:30.566Z,18.50
2019-03-29T16:39:58.997Z,18.40
2019-03-29T16:42:27.430Z,18.20
2019-03-29T16:44:57.247Z,18.10
2019-03-29T16:47:25.876Z,18.00
2019-03-29T16:49:56.020Z,17.90
2019-03-29T16:52:24.532Z,17.80
2019-03-29T16:54:53.075Z,17.80
2019-03-29T16:57:21.563Z,17.70
2019-03-29T16:59:49.972Z,17.60
2019-03-29T17:02:18.569Z,17.50
2019-03-29T17:04:47.081Z,17.50
2019-03-29T17:07:15.582Z,17.40
2019-03-29T17:09:44.018Z,17.30
2019-03-29T17:12:12.527Z,17.10
2019-03-29T17:14:41.050Z,17.10
2019-03-29T17:17:09.471Z,17.10
2019-03-29T17:19:38.024Z,17.10
2019-03-29T17:22:06.518Z,16.90
2019-03-29T17:24:35.016Z,16.90
2019-03-29T17:27:03.478Z,16.80
2019-03-29T17:29:31.910Z,16.70
2019-03-29T17:32:01.287Z,16.60
2019-03-29T17:34:29.751Z,16.50
2019-03-29T17:36:58.182Z,16.50
2019-03-29T17:39:26.638Z,16.50
2019-03-29T17:41:55.072Z,16.40
2019-03-29T17:44:26.297Z,16.30
2019-03-29T17:46:54.740Z,16.20
2019-03-29T17:49:23.238Z,16.00
2019-03-29T17:51:51.657Z,15.90
2019-03-29T17:54:20.238Z,15.80
2019-03-29T17:56:48.709Z,15.70
2019-03-29T17:59:17.134Z,15.60
2019-03-29T18:01:45.614Z,15.40
2019-03-29T18:04:14.075Z,15.20
2019-03-29T18:06:42.576Z,15.10
2019-03-29T18:09:11.081Z,14.80
2019-03-29T18:11:40.241Z,14.50
2019-03-29T18:14:08.750Z,14.30
2019-03-29T18:16:37.243Z,14.20
2019-03-29T18:19:05.810Z,14.10
2019-03-29T18:21:34.311Z,14.00
2019-03-29T18:24:02.740Z,13.90
2019-03-29T18:26:31.196Z,13.70
2019-03-29T18:28:59.610Z,13.50
2019-03-29T18:31:28.121Z,13.30
2019-03-29T18:33:56.583Z,13.00
2019-03-29T18:36:25.091Z,12.70
2019-03-29T18:38:53.901Z,12.50
2019-03-29T18:41:22.601Z,12.40
2019-03-29T18:43:51.847Z,12.10
2019-03-29T18:46:20.377Z,11.80
2019-03-29T18:48:48.840Z,11.50
2019-03-29T18:51:17.344Z,11.30
2019-03-29T18:53:45.892Z,11.10
2019-03-29T18:56:14.474Z,10.90
2019-03-29T18:58:43.065Z,10.80
2019-03-29T19:01:11.569Z,10.70
2019-03-29T19:03:40.210Z,10.60
2019-03-29T19:06:08.666Z,10.50
2019-03-29T19:08:37.141Z,10.60
2019-03-29T19:11:05.561Z,10.50
2019-03-29T19:13:37.055Z,10.40
2019-03-29T19:16:05.591Z,10.30
2019-03-29T19:18:34.098Z,10.20
2019-03-29T19:21:03.060Z,10.10
2019-03-29T19:23:31.569Z,10.10
2019-03-29T19:26:00.060Z,10.00
2019-03-29T19:28:28.673Z,10.00
2019-03-29T19:30:57.181Z,9.90
2019-03-29T19:33:25.621Z,9.80
2019-03-29T19:35:54.207Z,9.80
2019-03-29T19:38:22.709Z,9.80
2019-03-29T19:40:52.321Z,9.70
2019-03-29T19:43:20.786Z,9.70
2019-03-29T19:45:49.320Z,9.60
2019-03-29T19:48:17.734Z,9.40
2019-03-29T19:50:46.267Z,9.30
2019-03-29T19:53:14.692Z,9.10
2019-03-29T19:55:43.195Z,9.10
2019-03-29T19:58:11.753Z,9.10
2019-03-29T20:00:41.677Z,9.10
2019-03-29T20:03:10.344Z,9.00
2019-03-29T20:05:38.965Z,8.90
2019-03-29T20:08:07.479Z,8.80
2019-03-29T20:10:36.218Z,8.70
2019-03-29T20:13:07.206Z,8.70
2019-03-29T20:15:35.857Z,8.70
2019-03-29T20:18:04.519Z,8.60
2019-03-29T20:20:32.974Z,8.50
2019-03-29T20:23:02.851Z,8.40
2019-03-29T20:25:31.348Z,8.30
2019-03-29T20:27:59.940Z,8.10
2019-03-29T20:30:28.549Z,8.00
2019-03-29T20:32:58.684Z,8.00
2019-03-29T20:35:27.375Z,8.00
2019-03-29T20:37:56.096Z,8.00
2019-03-29T20:40:24.646Z,8.00
2019-03-29T20:42:53.121Z,7.90
2019-03-29T20:45:22.737Z,7.90
2019-03-29T20:47:52.117Z,7.90
2019-03-29T20:50:20.732Z,8.00
2019-03-29T20:52:49.264Z,8.00
2019-03-29T20:55:17.693Z,7.90
2019-03-29T20:57:46.124Z,7.90
2019-03-29T21:00:16.695Z,7.70
2019-03-29T21:02:45.153Z,7.50
2019-03-29T21:05:13.707Z,7.40
2019-03-29T21:07:42.288Z,7.30
2019-03-29T21:10:12.538Z,7.30
2019-03-29T21:12:41.021Z,7.40
2019-03-29T21:15:10.217Z,7.40
2019-03-29T21:17:38.781Z,7.40
2019-03-29T21:20:09.456Z,7.40
2019-03-29T21:22:38.044Z,7.30
2019-03-29T21:25:27.356Z,7.20
2019-03-29T21:27:55.795Z,7.10
2019-03-29T21:30:24.364Z,7.10
2019-03-29T21:32:52.853Z,7.10
2019-03-29T21:35:21.294Z,7.10
2019-03-29T21:37:49.801Z,7.00
2019-03-29T21:40:18.323Z,6.80
2019-03-29T21:42:46.753Z,6.70
2019-03-29T21:45:28.020Z,6.60
2019-03-29T21:47:45.854Z,6.50
2019-03-29T21:50:14.557Z,6.50
2019-03-29T21:52:43.092Z,6.40
2019-03-29T21:55:11.663Z,6.40
2019-03-29T21:57:40.106Z,6.40
2019-03-29T22:00:11.308Z,6.30
2019-03-29T22:02:39.805Z,6.30
2019-03-29T22:05:10.346Z,6.30
2019-03-29T22:07:38.909Z,6.20
2019-03-29T22:10:09.009Z,6.20
2019-03-29T22:12:37.695Z,6.20
2019-03-29T22:15:07.557Z,6.20
2019-03-29T22:17:35.969Z,6.20
2019-03-29T22:20:07.389Z,6.30
2019-03-29T22:22:36.311Z,6.20
2019-03-29T22:25:07.333Z,6.20
2019-03-29T22:27:35.749Z,6.20
2019-03-29T22:30:07.043Z,6.10
2019-03-29T22:32:35.504Z,6.00
2019-03-29T22:35:06.272Z,5.90
2019-03-29T22:37:35.219Z,5.80
2019-03-29T22:40:07.898Z,5.80
2019-03-29T22:42:36.414Z,5.90
2019-03-29T22:45:07.165Z,6.00
2019-03-29T22:47:36.080Z,5.90
2019-03-29T22:50:06.366Z,6.00
2019-03-29T22:52:35.259Z,6.00
2019-03-29T22:55:06.298Z,6.00
2019-03-29T22:57:35.095Z,6.00
2019-03-29T23:00:09.505Z,6.00
2019-03-29T23:02:38.265Z,6.00
2019-03-29T23:05:07.751Z,5.90
2019-03-29T23:07:36.599Z,5.90
2019-03-29T23:10:07.542Z,5.80
2019-03-29T23:12:36.113Z,5.70
2019-03-29T23:15:05.781Z,5.70
2019-03-29T23:17:34.250Z,5.70
2019-03-29T23:20:02.736Z,5.70
2019-03-29T23:22:31.168Z,5.60
2019-03-29T23:24:59.597Z,5.70
2019-03-29T23:27:28.044Z,5.60
2019-03-29T23:29:56.449Z,5.60
2019-03-29T23:32:24.871Z,5.60
2019-03-29T23:34:53.308Z,5.50
2019-03-29T23:37:21.802Z,5.30
2019-03-29T23:39:50.213Z,5.20
2019-03-29T23:42:18.980Z,5.10
2019-03-29T23:44:47.451Z,5.10
2019-03-29T23:47:15.995Z,5.10
2019-03-29T23:49:44.443Z,5.00
2019-03-29T23:52:12.865Z,5.00
2019-03-29T23:54:41.337Z,4.90
2019-03-29T23:57:09.743Z,4.90
2019-03-29T23:59:38.253Z,4.90
